createdAt,value
2022-12-16T00:00:05.284Z,7.82
2022-12-16T00:02:38.934Z,6.60
2022-12-16T00:05:09.544Z,8.20
2022-12-16T00:07:43.027Z,6.93
2022-12-16T00:10:11.052Z,7.03
2022-12-16T00:12:38.868Z,7.53
2022-12-16T00:15:06.784Z,8.18
2022-12-16T00:17:36.811Z,6.50
2022-12-16T00:20:13.490Z,6.30
2022-12-16T00:22:42.097Z,7.80
2022-12-16T00:25:14.831Z,7.85
2022-12-16T00:27:46.049Z,7.75
2022-12-16T00:30:19.140Z,7.18
2022-12-16T00:32:51.694Z,6.63
2022-12-16T00:35:19.360Z,7.05
2022-12-16T00:37:47.900Z,6.50
2022-12-16T00:40:20.585Z,6.05
2022-12-16T00:42:52.964Z,6.60
2022-12-16T00:45:29.012Z,7.20
2022-12-16T00:47:56.630Z,6.97
2022-12-16T00:50:29.790Z,7.38
2022-12-16T00:53:03.169Z,7.63
2022-12-16T00:55:38.663Z,6.35
2022-12-16T00:58:08.676Z,6.18
2022-12-16T01:00:42.250Z,5.65
2022-12-16T01:03:13.246Z,6.55
2022-12-16T01:05:48.599Z,5.78
2022-12-16T01:08:25.164Z,7.03
2022-12-16T01:10:58.790Z,7.15
2022-12-16T01:15:54.864Z,6.63
2022-12-16T01:18:22.438Z,5.88
2022-12-16T01:20:53.046Z,6.82
2022-12-16T01:23:25.258Z,6.00
2022-12-16T01:25:57.671Z,6.70
2022-12-16T01:28:29.497Z,5.60
2022-12-16T01:31:01.635Z,5.47
2022-12-16T01:33:34.680Z,5.13
2022-12-16T01:36:06.157Z,6.07
2022-12-16T01:38:35.144Z,4.53
2022-12-16T01:41:08.972Z,6.30
2022-12-16T01:43:38.335Z,5.57
2022-12-16T01:46:09.045Z,5.63
2022-12-16T01:49:03.723Z,6.45
2022-12-16T01:51:35.801Z,5.43
2022-12-16T01:54:21.852Z,4.93
2022-12-16T01:56:59.953Z,6.72
2022-12-16T01:59:32.983Z,6.30
2022-12-16T02:02:02.961Z,6.28
2022-12-16T02:04:33.325Z,5.65
2022-12-16T02:07:06.521Z,5.28
2022-12-16T02:09:37.014Z,6.03
2022-12-16T02:12:25.870Z,5.40
2022-12-16T02:15:23.817Z,5.38
2022-12-16T02:18:00.714Z,5.38
2022-12-16T02:21:11.590Z,6.65
2022-12-16T02:24:00.616Z,5.97
2022-12-16T02:26:52.667Z,4.65
2022-12-16T02:29:59.473Z,6.32
2022-12-16T02:32:40.757Z,4.70
2022-12-16T02:35:22.644Z,5.93
2022-12-16T02:38:04.271Z,3.78
2022-12-16T02:40:52.044Z,5.05
2022-12-16T02:43:57.057Z,5.82
2022-12-16T02:46:33.199Z,4.35
2022-12-16T02:49:32.580Z,4.57
2022-12-16T02:52:04.108Z,5.30
2022-12-16T02:54:34.540Z,4.13
2022-12-16T02:57:14.203Z,5.18
2022-12-16T03:00:00.991Z,6.05
2022-12-16T03:02:49.017Z,4.45
2022-12-16T03:05:31.405Z,4.43
2022-12-16T03:08:06.010Z,4.57
2022-12-16T03:10:48.069Z,6.00
2022-12-16T03:13:19.837Z,4.95
2022-12-16T03:15:55.906Z,4.38
2022-12-16T03:18:28.121Z,4.88
2022-12-16T03:21:09.554Z,4.50
2022-12-16T03:23:47.832Z,3.13
2022-12-16T03:26:32.974Z,4.28
2022-12-16T03:29:22.934Z,5.32
2022-12-16T03:32:03.665Z,4.90
2022-12-16T03:34:51.787Z,4.18
2022-12-16T03:37:26.226Z,5.03
2022-12-16T03:40:00.509Z,3.83
2022-12-16T03:42:33.680Z,4.50
2022-12-16T03:45:08.594Z,4.40
2022-12-16T03:47:39.043Z,3.60
2022-12-16T03:50:12.809Z,3.92
2022-12-16T03:55:15.996Z,4.57
2022-12-16T03:57:49.032Z,3.08
2022-12-16T04:00:20.565Z,5.05
2022-12-16T04:02:55.348Z,3.35
2022-12-16T04:05:26.114Z,3.90
2022-12-16T04:08:01.818Z,4.43
2022-12-16T04:10:48.959Z,3.97
2022-12-16T04:13:35.607Z,3.55
2022-12-16T04:16:21.806Z,3.58
2022-12-16T04:19:10.779Z,3.60
2022-12-16T04:21:59.956Z,4.25
2022-12-16T04:24:32.480Z,4.78
2022-12-16T04:27:19.267Z,3.72
2022-12-16T04:30:05.481Z,4.13
2022-12-16T04:32:53.056Z,4.70
2022-12-16T04:35:44.666Z,3.97
2022-12-16T04:38:33.902Z,4.53
2022-12-16T04:41:22.623Z,3.88
2022-12-16T04:44:11.731Z,4.03
2022-12-16T04:47:01.048Z,4.75
2022-12-16T04:49:47.328Z,4.13
2022-12-16T04:52:36.967Z,4.75
2022-12-16T04:55:26.225Z,4.80
2022-12-16T04:58:17.474Z,4.07
2022-12-16T05:01:10.285Z,3.53
2022-12-16T05:03:59.048Z,3.83
2022-12-16T05:06:45.633Z,4.18
2022-12-16T05:09:34.896Z,4.18
2022-12-16T05:12:24.476Z,4.60
2022-12-16T05:15:11.338Z,4.90
2022-12-16T05:17:59.994Z,3.63
2022-12-16T05:20:47.024Z,4.53
2022-12-16T05:23:36.769Z,4.30
2022-12-16T05:26:25.492Z,5.00
2022-12-16T05:29:14.461Z,4.50
2022-12-16T05:32:03.554Z,5.32
2022-12-16T05:34:54.510Z,4.22
2022-12-16T05:37:40.442Z,5.28
2022-12-16T05:40:33.220Z,4.75
2022-12-16T05:43:19.063Z,5.75
2022-12-16T05:46:07.602Z,4.68
2022-12-16T05:48:56.848Z,4.80
2022-12-16T05:51:42.615Z,5.38
2022-12-16T05:54:31.489Z,4.55
2022-12-16T05:57:21.128Z,3.70
2022-12-16T06:00:10.259Z,4.53
2022-12-16T06:03:02.128Z,5.07
2022-12-16T06:05:48.616Z,4.93
2022-12-16T06:08:37.426Z,5.25
2022-12-16T06:11:24.083Z,4.53
2022-12-16T06:14:11.324Z,4.88
2022-12-16T06:16:57.857Z,4.80
2022-12-16T06:19:43.968Z,4.60
2022-12-16T06:22:30.036Z,5.55
2022-12-16T06:25:19.900Z,5.32
2022-12-16T06:28:13.409Z,4.70
2022-12-16T06:31:07.452Z,4.87
2022-12-16T06:34:13.912Z,4.82
2022-12-16T06:37:02.869Z,5.00
2022-12-16T06:39:54.723Z,5.47
2022-12-16T06:42:44.332Z,4.72
2022-12-16T06:45:34.889Z,5.55
2022-12-16T06:48:20.957Z,4.35
2022-12-16T06:51:09.432Z,5.50
2022-12-16T06:53:56.450Z,4.80
2022-12-16T06:56:45.275Z,5.53
2022-12-16T06:59:31.435Z,5.53
2022-12-16T07:02:23.250Z,5.82
2022-12-16T07:05:15.964Z,5.25
2022-12-16T07:08:09.524Z,4.95
2022-12-16T07:11:07.561Z,5.97
2022-12-16T07:14:06.863Z,6.35
2022-12-16T07:16:53.218Z,5.80
2022-12-16T07:19:42.692Z,7.10
2022-12-16T07:22:28.723Z,6.60
2022-12-16T07:25:15.014Z,5.72
2022-12-16T07:28:06.570Z,6.50
2022-12-16T07:30:58.796Z,5.10
2022-12-16T07:33:55.826Z,5.90
2022-12-16T07:36:46.848Z,6.50
2022-12-16T07:39:37.455Z,6.05
2022-12-16T07:42:29.179Z,5.90
2022-12-16T07:45:15.533Z,5.10
2022-12-16T07:48:09.942Z,5.85
2022-12-16T07:51:02.674Z,6.22
2022-12-16T07:53:49.679Z,6.78
2022-12-16T07:56:35.822Z,7.57
2022-12-16T07:59:24.071Z,6.43
2022-12-16T08:02:15.862Z,5.82
2022-12-16T08:05:08.604Z,6.30
2022-12-16T08:08:06.638Z,6.95
2022-12-16T08:10:52.975Z,8.13
2022-12-16T08:13:44.502Z,8.23
2022-12-16T08:16:37.431Z,6.20
2022-12-16T08:19:26.324Z,7.03
2022-12-16T08:22:17.840Z,7.38
2022-12-16T08:25:12.993Z,6.90
2022-12-16T08:28:12.508Z,7.40
2022-12-16T08:31:08.041Z,5.97
2022-12-16T08:33:55.073Z,6.80
2022-12-16T08:36:47.776Z,10.10
2022-12-16T08:39:35.428Z,7.63
2022-12-16T08:42:24.023Z,8.05
2022-12-16T08:45:18.712Z,7.65
2022-12-16T08:48:18.883Z,11.55
2022-12-16T08:51:08.335Z,6.07
2022-12-16T08:53:57.664Z,6.75
2022-12-16T08:56:50.038Z,7.38
2022-12-16T08:59:39.671Z,7.63
2022-12-16T09:02:39.063Z,7.18
2022-12-16T09:05:29.031Z,7.35
2022-12-16T09:08:20.142Z,6.97
2022-12-16T09:11:10.280Z,7.78
2022-12-16T09:14:02.534Z,8.43
2022-12-16T09:16:54.732Z,6.95
2022-12-16T09:19:41.387Z,7.78
2022-12-16T09:22:29.993Z,7.63
2022-12-16T09:25:19.045Z,7.95
2022-12-16T09:28:11.241Z,8.38
2022-12-16T09:31:03.449Z,8.55
2022-12-16T09:33:53.540Z,6.93
2022-12-16T09:36:43.088Z,7.15
2022-12-16T09:39:32.399Z,8.40
2022-12-16T09:42:40.688Z,10.25
2022-12-16T09:45:59.771Z,8.48
2022-12-16T09:49:00.080Z,8.85
2022-12-16T09:51:48.497Z,7.85
2022-12-16T09:54:41.850Z,7.38
2022-12-16T09:57:32.888Z,7.97
2022-12-16T10:00:43.441Z,7.05
2022-12-16T10:03:56.849Z,8.07
2022-12-16T10:07:10.659Z,7.90
2022-12-16T10:10:15.047Z,8.43
2022-12-16T10:13:04.520Z,7.85
2022-12-16T10:16:20.644Z,7.28
2022-12-16T10:19:25.395Z,8.13
2022-12-16T10:22:26.460Z,7.40
2022-12-16T10:25:32.406Z,9.13
2022-12-16T10:28:57.842Z,7.05
2022-12-16T10:31:48.780Z,7.63
2022-12-16T10:34:48.056Z,8.48
2022-12-16T10:37:48.980Z,7.35
2022-12-16T10:40:41.702Z,7.55
2022-12-16T10:43:52.803Z,9.75
2022-12-16T10:46:47.354Z,8.50
2022-12-16T10:49:58.021Z,9.13
2022-12-16T10:52:46.980Z,6.85
2022-12-16T10:56:10.434Z,8.27
2022-12-16T10:59:23.592Z,7.85
2022-12-16T11:02:18.652Z,7.53
2022-12-16T11:05:07.773Z,8.25
2022-12-16T11:08:11.192Z,6.55
2022-12-16T11:11:03.376Z,7.68
2022-12-16T11:13:55.012Z,8.05
2022-12-16T11:16:43.925Z,8.35
2022-12-16T11:19:41.817Z,7.15
2022-12-16T11:22:40.974Z,8.75
2022-12-16T11:25:40.240Z,7.95
2022-12-16T11:28:37.811Z,7.80
2022-12-16T11:31:28.767Z,7.22
2022-12-16T11:34:24.208Z,8.93
2022-12-16T11:37:18.124Z,6.90
2022-12-16T11:40:10.518Z,6.78
2022-12-16T11:42:57.690Z,7.32
2022-12-16T11:45:45.435Z,6.82
2022-12-16T11:49:13.709Z,6.90
2022-12-16T11:52:35.400Z,7.93
2022-12-16T11:55:18.740Z,7.25
2022-12-16T11:58:18.359Z,7.47
2022-12-16T12:01:16.813Z,8.48
2022-12-16T12:04:05.521Z,7.85
2022-12-16T12:07:15.863Z,7.82
2022-12-16T12:10:26.868Z,7.30
2022-12-16T12:13:19.828Z,7.38
2022-12-16T12:16:14.154Z,7.85
2022-12-16T12:19:17.686Z,7.72
2022-12-16T12:22:21.379Z,6.95
2022-12-16T12:25:41.681Z,8.03
2022-12-16T12:28:34.362Z,7.75
2022-12-16T12:31:38.577Z,7.18
2022-12-16T12:34:37.990Z,7.05
2022-12-16T12:37:39.499Z,7.95
2022-12-16T12:40:44.289Z,6.32
2022-12-16T12:43:49.496Z,7.20
2022-12-16T12:47:09.386Z,7.43
2022-12-16T12:50:24.295Z,7.78
2022-12-16T12:56:40.628Z,7.72
2022-12-16T12:59:43.963Z,6.38
2022-12-16T13:02:42.322Z,6.65
2022-12-16T13:05:35.543Z,7.07
2022-12-16T13:08:59.362Z,7.77
2022-12-16T13:11:51.786Z,7.45
2022-12-16T13:14:51.556Z,6.45
2022-12-16T13:17:39.505Z,7.97
2022-12-16T13:20:56.389Z,7.13
2022-12-16T13:23:56.573Z,6.15
2022-12-16T13:26:46.964Z,7.38
2022-12-16T13:29:50.938Z,7.20
2022-12-16T13:32:46.187Z,5.78
2022-12-16T13:35:36.588Z,6.93
2022-12-16T13:38:40.876Z,6.85
2022-12-16T13:41:45.834Z,6.97
2022-12-16T13:45:02.107Z,7.78
2022-12-16T13:48:11.380Z,7.28
2022-12-16T13:51:07.292Z,7.72
2022-12-16T13:54:08.398Z,7.55
2022-12-16T13:57:10.446Z,6.07
2022-12-16T13:59:59.599Z,7.63
2022-12-16T14:03:02.036Z,6.68
2022-12-16T14:06:02.084Z,6.28
2022-12-16T14:09:02.497Z,7.35
2022-12-16T14:12:17.213Z,5.93
2022-12-16T14:15:15.923Z,6.63
2022-12-16T14:18:18.963Z,6.45
2022-12-16T14:21:19.595Z,6.70
2022-12-16T14:24:27.878Z,6.60
2022-12-16T14:27:23.412Z,6.80
2022-12-16T14:30:15.915Z,6.00
2022-12-16T14:33:06.235Z,5.85
2022-12-16T14:35:55.661Z,6.88
2022-12-16T14:38:48.653Z,7.22
2022-12-16T14:41:47.431Z,6.32
2022-12-16T14:44:38.678Z,6.70
2022-12-16T14:47:38.699Z,6.20
2022-12-16T14:50:49.137Z,6.55
2022-12-16T14:53:43.371Z,6.03
2022-12-16T14:56:40.529Z,8.65
2022-12-16T14:59:36.545Z,6.20
2022-12-16T15:02:47.408Z,6.07
2022-12-16T15:05:38.028Z,6.93
2022-12-16T15:08:28.948Z,6.00
2022-12-16T15:11:17.262Z,6.30
2022-12-16T15:14:05.306Z,7.13
2022-12-16T15:16:57.134Z,6.65
2022-12-16T15:19:45.045Z,5.97
2022-12-16T15:22:37.429Z,6.95
2022-12-16T15:25:24.507Z,7.25
2022-12-16T15:28:16.869Z,7.05
2022-12-16T15:31:06.963Z,7.32
2022-12-16T15:33:58.249Z,7.22
2022-12-16T15:36:53.159Z,8.43
2022-12-16T15:39:59.238Z,6.85
2022-12-16T15:42:50.654Z,8.57
2022-12-16T15:45:45.215Z,6.82
2022-12-16T15:48:53.120Z,8.02
2022-12-16T15:51:59.173Z,7.65
2022-12-16T15:54:45.865Z,7.13
2022-12-16T15:57:50.015Z,7.03
2022-12-16T16:00:49.315Z,7.97
2022-12-16T16:03:44.266Z,15.57
2022-12-16T16:06:45.612Z,7.20
2022-12-16T16:09:34.788Z,8.02
2022-12-16T16:12:26.337Z,6.72
2022-12-16T16:15:12.764Z,7.05
2022-12-16T16:17:59.082Z,7.93
2022-12-16T16:20:51.547Z,6.53
2022-12-16T16:23:41.053Z,7.60
2022-12-16T16:26:31.719Z,7.28
